createdAt,value
2019-02-24T00:01:25.109Z,62.90
2019-02-24T00:03:54.780Z,63.70
2019-02-24T00:06:24.040Z,63.90
2019-02-24T00:08:53.209Z,67.40
2019-02-24T00:11:22.588Z,67.40
2019-02-24T00:13:51.823Z,67.30
2019-02-24T00:16:21.021Z,69.20
2019-02-24T00:18:50.235Z,70.50
2019-02-24T00:21:19.524Z,70.10
2019-02-24T00:23:48.772Z,69.70
2019-02-24T00:26:18.031Z,68.70
2019-02-24T00:28:47.259Z,69.20
2019-02-24T00:31:16.490Z,70.40
2019-02-24T00:33:45.684Z,69.10
2019-02-24T00:36:14.846Z,66.30
2019-02-24T00:38:44.548Z,67.10
2019-02-24T00:41:13.933Z,66.90
2019-02-24T00:43:43.178Z,65.50
2019-02-24T00:46:12.369Z,65.20
2019-02-24T00:48:41.700Z,68.10
2019-02-24T00:51:10.942Z,70.00
2019-02-24T00:53:40.181Z,69.60
2019-02-24T00:56:09.333Z,68.10
2019-02-24T00:58:38.518Z,66.30
2019-02-24T01:01:07.646Z,69.40
2019-02-24T01:03:36.812Z,69.60
2019-02-24T01:06:06.034Z,67.90
2019-02-24T01:08:35.222Z,68.00
2019-02-24T01:11:04.474Z,65.40
2019-02-24T01:13:33.654Z,64.20
2019-02-24T01:16:02.936Z,61.40
2019-02-24T01:18:32.232Z,62.50
2019-02-24T01:21:01.463Z,61.50
2019-02-24T01:23:30.713Z,61.90
2019-02-24T01:25:59.880Z,63.40
2019-02-24T01:28:29.069Z,63.90
2019-02-24T01:30:58.301Z,63.90
2019-02-24T01:33:27.478Z,63.30
2019-02-24T01:35:56.711Z,65.70
2019-02-24T01:38:25.953Z,67.30
2019-02-24T01:40:55.182Z,68.90
2019-02-24T01:43:24.413Z,69.20
2019-02-24T01:45:53.640Z,68.10
2019-02-24T01:48:22.864Z,63.20
2019-02-24T01:50:51.986Z,57.50
2019-02-24T01:53:21.143Z,58.00
2019-02-24T01:55:50.369Z,59.30
2019-02-24T01:58:19.616Z,59.60
2019-02-24T02:00:48.767Z,60.00
2019-02-24T02:03:18.014Z,61.00
2019-02-24T02:05:47.166Z,59.50
2019-02-24T02:08:16.337Z,60.50
2019-02-24T02:10:45.508Z,61.20
2019-02-24T02:13:14.671Z,59.30
2019-02-24T02:15:43.925Z,59.60
2019-02-24T02:18:13.073Z,59.30
2019-02-24T02:20:42.308Z,58.90
2019-02-24T02:23:11.582Z,60.90
2019-02-24T02:25:40.803Z,59.60
2019-02-24T02:28:09.966Z,59.40
2019-02-24T02:30:39.213Z,60.20
2019-02-24T02:33:08.533Z,60.20
2019-02-24T02:35:37.778Z,60.00
2019-02-24T02:38:06.933Z,59.40
2019-02-24T02:40:36.082Z,58.90
2019-02-24T02:43:24.448Z,57.60
2019-02-24T02:45:53.737Z,57.50
2019-02-24T02:48:23.054Z,57.80
2019-02-24T02:50:52.409Z,56.90
2019-02-24T02:53:21.761Z,58.40
2019-02-24T02:55:51.033Z,59.00
2019-02-24T02:58:20.540Z,60.50
2019-02-24T03:00:49.806Z,61.00
2019-02-24T03:03:19.101Z,63.00
2019-02-24T03:06:00.087Z,63.60
2019-02-24T03:08:48.339Z,61.80
2019-02-24T03:11:17.721Z,58.60
2019-02-24T03:13:47.015Z,59.10
2019-02-24T03:16:20.190Z,61.00
2019-02-24T03:18:49.491Z,62.30
2019-02-24T03:21:18.970Z,63.70
2019-02-24T03:23:48.277Z,63.20
2019-02-24T03:26:17.561Z,63.60
2019-02-24T03:28:46.843Z,62.70
2019-02-24T03:31:16.126Z,62.80
2019-02-24T03:33:45.437Z,62.40
2019-02-24T03:36:14.733Z,62.90
2019-02-24T03:39:03.119Z,62.20
2019-02-24T03:41:32.853Z,60.60
2019-02-24T03:44:02.144Z,60.00
2019-02-24T03:46:31.409Z,60.10
2019-02-24T03:49:00.703Z,60.20
2019-02-24T03:51:30.014Z,59.80
2019-02-24T03:53:59.635Z,59.90
2019-02-24T03:56:28.892Z,61.20
2019-02-24T03:58:58.196Z,59.30
2019-02-24T04:01:27.469Z,60.00
2019-02-24T04:04:15.827Z,62.60
2019-02-24T04:06:45.099Z,62.70
2019-02-24T04:09:14.381Z,62.80
2019-02-24T04:11:43.659Z,64.10
2019-02-24T04:14:12.973Z,65.50
2019-02-24T04:16:42.251Z,65.60
2019-02-24T04:19:11.611Z,66.30
2019-02-24T04:21:40.865Z,67.70
2019-02-24T04:24:10.402Z,68.50
2019-02-24T04:26:39.646Z,68.40
2019-02-24T04:29:09.026Z,67.00
2019-02-24T04:31:38.458Z,67.40
2019-02-24T04:34:07.733Z,68.00
2019-02-24T04:36:37.048Z,65.90
2019-02-24T04:39:06.718Z,60.20
2019-02-24T04:41:36.048Z,58.90
2019-02-24T04:44:05.455Z,59.40
2019-02-24T04:46:34.735Z,63.40
2019-02-24T04:49:04.001Z,64.90
2019-02-24T04:51:33.402Z,65.40
2019-02-24T04:54:02.741Z,65.90
2019-02-24T04:56:32.118Z,66.50
2019-02-24T04:59:01.490Z,66.70
2019-02-24T05:01:30.838Z,66.80
2019-02-24T05:04:00.144Z,66.40
2019-02-24T05:06:29.435Z,64.60
2019-02-24T05:08:58.680Z,63.60
2019-02-24T05:11:27.968Z,63.60
2019-02-24T05:13:57.284Z,62.60
2019-02-24T05:16:26.621Z,63.20
2019-02-24T05:18:55.878Z,64.00
2019-02-24T05:21:25.154Z,65.20
2019-02-24T05:23:54.458Z,64.70
2019-02-24T05:26:23.939Z,65.40
2019-02-24T05:28:53.207Z,65.70
2019-02-24T05:31:22.483Z,64.60
2019-02-24T05:33:51.797Z,64.20
2019-02-24T05:36:21.123Z,65.10
2019-02-24T05:38:52.263Z,65.50
2019-02-24T05:41:21.699Z,67.20
2019-02-24T05:43:51.127Z,65.90
2019-02-24T05:46:20.474Z,65.20
2019-02-24T05:48:49.764Z,66.30
2019-02-24T05:51:19.061Z,66.80
2019-02-24T05:53:48.459Z,67.20
2019-02-24T05:56:17.786Z,65.70
2019-02-24T05:58:49.139Z,66.00
2019-02-24T06:01:19.952Z,66.10
2019-02-24T06:03:49.482Z,67.30
2019-02-24T06:06:18.759Z,69.30
2019-02-24T06:08:48.199Z,70.20
2019-02-24T06:11:17.505Z,70.10
2019-02-24T06:13:46.831Z,68.00
2019-02-24T06:16:16.109Z,65.90
2019-02-24T06:18:45.415Z,64.70
2019-02-24T06:21:14.682Z,64.20
2019-02-24T06:23:43.971Z,65.50
2019-02-24T06:26:13.266Z,63.10
2019-02-24T06:28:42.611Z,63.50
2019-02-24T06:31:12.231Z,64.70
2019-02-24T06:33:41.551Z,64.30
2019-02-24T06:36:11.066Z,63.30
2019-02-24T06:38:40.419Z,64.60
2019-02-24T06:41:09.715Z,66.20
2019-02-24T06:43:39.053Z,67.10
2019-02-24T06:46:08.532Z,67.10
2019-02-24T06:48:37.818Z,67.30
2019-02-24T06:51:09.340Z,67.40
2019-02-24T06:53:38.655Z,67.70
2019-02-24T06:56:07.927Z,67.40
2019-02-24T06:58:37.204Z,67.80
2019-02-24T07:01:06.656Z,67.90
2019-02-24T07:03:35.937Z,68.00
2019-02-24T07:06:05.213Z,67.90
2019-02-24T07:08:34.551Z,66.70
2019-02-24T07:11:03.914Z,68.00
2019-02-24T07:13:35.824Z,68.20
2019-02-24T07:16:05.286Z,67.90
2019-02-24T07:18:40.669Z,68.50
2019-02-24T07:21:10.418Z,68.40
2019-02-24T07:23:43.764Z,69.60
2019-02-24T07:26:18.624Z,70.10
2019-02-24T07:28:47.989Z,70.00
2019-02-24T07:31:22.185Z,70.30
2019-02-24T07:33:55.348Z,70.30
2019-02-24T07:36:24.607Z,70.10
2019-02-24T07:38:54.011Z,70.10
2019-02-24T07:41:23.321Z,71.20
2019-02-24T07:43:52.618Z,70.70
2019-02-24T07:46:21.986Z,69.60
2019-02-24T07:48:51.299Z,68.90
2019-02-24T07:51:20.624Z,68.90
2019-02-24T07:53:50.258Z,68.90
2019-02-24T07:56:19.619Z,68.40
2019-02-24T07:58:49.165Z,69.30
2019-02-24T08:01:18.584Z,68.00
2019-02-24T08:03:47.964Z,69.50
2019-02-24T08:06:17.322Z,69.60
2019-02-24T08:08:47.326Z,69.80
2019-02-24T08:11:16.600Z,69.00
2019-02-24T08:13:45.923Z,69.50
2019-02-24T08:16:15.262Z,69.60
2019-02-24T08:18:49.522Z,68.30
2019-02-24T08:21:16.105Z,68.00
2019-02-24T08:23:45.396Z,65.50
2019-02-24T08:26:14.692Z,66.80
2019-02-24T08:28:43.989Z,65.80
2019-02-24T08:31:14.183Z,65.30
2019-02-24T08:33:43.682Z,65.40
2019-02-24T08:36:13.093Z,65.40
2019-02-24T08:38:42.950Z,65.10
2019-02-24T08:41:12.350Z,65.00
2019-02-24T08:43:41.674Z,62.90
2019-02-24T08:46:11.582Z,63.50
2019-02-24T08:48:40.990Z,61.80
2019-02-24T08:51:14.045Z,63.00
2019-02-24T08:53:46.281Z,63.00
2019-02-24T08:56:15.295Z,62.60
2019-02-24T08:58:44.613Z,62.60
2019-02-24T09:01:13.870Z,61.60
2019-02-24T09:03:43.121Z,61.40
2019-02-24T09:06:12.336Z,61.90
2019-02-24T09:08:41.620Z,60.10
2019-02-24T09:11:11.042Z,59.90
2019-02-24T09:13:41.864Z,61.20
2019-02-24T09:16:11.799Z,59.70
2019-02-24T09:18:41.489Z,60.00
2019-02-24T09:21:13.656Z,59.70
2019-02-24T09:23:43.841Z,60.80
2019-02-24T09:26:13.483Z,61.10
2019-02-24T09:28:46.626Z,60.70
2019-02-24T09:31:16.469Z,60.80
2019-02-24T09:33:46.149Z,60.70
2019-02-24T09:36:15.676Z,60.30
2019-02-24T09:38:45.139Z,59.20
2019-02-24T09:41:14.539Z,58.70
2019-02-24T09:43:44.133Z,58.90
2019-02-24T09:46:13.673Z,58.80
2019-02-24T09:48:43.322Z,58.40
2019-02-24T09:51:12.805Z,56.50
2019-02-24T09:53:42.500Z,56.10
2019-02-24T09:56:11.952Z,56.50
2019-02-24T09:58:41.586Z,56.70
2019-02-24T10:01:16.151Z,57.20
2019-02-24T10:03:45.850Z,54.20
2019-02-24T10:06:15.314Z,54.50
2019-02-24T10:08:44.881Z,53.20
2019-02-24T10:11:14.571Z,52.10
2019-02-24T10:13:44.182Z,53.90
2019-02-24T10:16:18.140Z,55.30
2019-02-24T10:18:48.981Z,54.50
2019-02-24T10:21:19.048Z,55.90
2019-02-24T10:23:48.401Z,56.40
2019-02-24T10:26:17.802Z,53.40
2019-02-24T10:28:47.827Z,53.40
2019-02-24T10:31:19.777Z,55.90
2019-02-24T10:33:48.958Z,55.40
2019-02-24T10:36:18.591Z,55.90
2019-02-24T10:38:48.197Z,56.10
2019-02-24T10:41:18.000Z,56.90
2019-02-24T10:43:47.666Z,56.40
2019-02-24T10:46:17.060Z,55.20
2019-02-24T10:48:46.533Z,54.60
2019-02-24T10:51:15.958Z,52.80
2019-02-24T10:53:45.425Z,52.30
2019-02-24T10:56:14.836Z,49.30
2019-02-24T10:58:44.405Z,51.80
2019-02-24T11:01:13.941Z,52.70
2019-02-24T11:03:43.723Z,52.00
2019-02-24T11:06:13.634Z,49.60
2019-02-24T11:08:43.158Z,47.50
2019-02-24T11:11:12.833Z,48.90
2019-02-24T11:13:42.617Z,50.80
2019-02-24T11:16:12.874Z,51.60
2019-02-24T11:18:42.365Z,51.40
2019-02-24T11:21:12.105Z,50.70
2019-02-24T11:23:41.665Z,49.80
2019-02-24T11:26:12.015Z,52.10
2019-02-24T11:28:41.926Z,52.30
2019-02-24T11:31:12.022Z,50.30
2019-02-24T11:33:42.660Z,49.80
2019-02-24T11:36:12.342Z,49.50
2019-02-24T11:38:41.977Z,50.40
2019-02-24T11:41:11.741Z,50.70
2019-02-24T11:43:41.263Z,50.00
2019-02-24T11:46:13.604Z,49.00
2019-02-24T11:48:43.283Z,49.90
2019-02-24T11:51:13.178Z,49.50
2019-02-24T11:53:42.769Z,49.50
2019-02-24T11:56:12.157Z,50.00
2019-02-24T11:58:41.870Z,50.40
2019-02-24T12:01:11.456Z,50.30
2019-02-24T12:03:40.822Z,50.00
2019-02-24T12:06:10.284Z,48.30
2019-02-24T12:08:42.641Z,48.00
2019-02-24T12:11:12.265Z,48.80
2019-02-24T12:13:42.170Z,47.20
2019-02-24T12:16:11.752Z,48.10
2019-02-24T12:18:41.262Z,48.00
2019-02-24T12:21:10.777Z,48.30
2019-02-24T12:23:40.360Z,49.40
2019-02-24T12:26:10.142Z,49.20
2019-02-24T12:28:39.344Z,49.40
2019-02-24T12:31:08.722Z,49.60
2019-02-24T12:33:38.207Z,49.60
2019-02-24T12:36:07.609Z,49.40
2019-02-24T12:38:37.270Z,49.10
2019-02-24T12:41:06.743Z,49.00
2019-02-24T12:43:36.504Z,49.40
2019-02-24T12:46:08.487Z,49.50
2019-02-24T12:48:40.483Z,49.20
2019-02-24T12:51:13.562Z,49.20
2019-02-24T12:53:42.922Z,49.00
2019-02-24T12:56:12.351Z,49.40
2019-02-24T12:58:41.858Z,48.60
2019-02-24T13:01:11.296Z,48.50
2019-02-24T13:03:40.849Z,49.30
2019-02-24T13:06:13.925Z,48.90
2019-02-24T13:08:43.145Z,48.80
2019-02-24T13:11:12.703Z,47.70
2019-02-24T13:14:01.168Z,48.20
2019-02-24T13:16:30.446Z,48.10
2019-02-24T13:18:59.755Z,47.90
2019-02-24T13:21:29.072Z,48.20
2019-02-24T13:23:58.643Z,48.00
2019-02-24T13:26:28.526Z,47.80
2019-02-24T13:28:57.829Z,47.80
2019-02-24T13:31:30.051Z,47.70
2019-02-24T13:33:59.325Z,47.00
2019-02-24T13:36:28.610Z,46.90
2019-02-24T13:38:58.382Z,47.60
2019-02-24T13:41:27.809Z,46.70
2019-02-24T13:43:57.143Z,46.40
2019-02-24T13:46:26.505Z,45.90
2019-02-24T13:48:55.864Z,46.90
2019-02-24T13:51:25.153Z,46.70
2019-02-24T13:53:54.465Z,45.10
2019-02-24T13:56:23.832Z,46.90
2019-02-24T13:58:53.120Z,47.50
2019-02-24T14:01:22.484Z,47.90
2019-02-24T14:03:51.923Z,46.70
2019-02-24T14:06:21.213Z,47.10
2019-02-24T14:08:50.414Z,46.70
2019-02-24T14:11:19.672Z,46.70
2019-02-24T14:13:49.092Z,47.20
2019-02-24T14:16:18.470Z,46.20
2019-02-24T14:18:47.716Z,47.40
2019-02-24T14:21:16.944Z,46.80
2019-02-24T14:23:46.178Z,46.30
2019-02-24T14:26:15.551Z,46.50
2019-02-24T14:28:44.748Z,46.80
2019-02-24T14:31:14.400Z,46.70
2019-02-24T14:33:47.333Z,46.90
2019-02-24T14:36:17.599Z,46.80
2019-02-24T14:38:47.085Z,46.40
2019-02-24T14:41:16.599Z,47.10
2019-02-24T14:43:45.979Z,47.00
2019-02-24T14:46:15.253Z,47.60
2019-02-24T14:48:44.836Z,47.70
2019-02-24T14:51:14.158Z,47.90
2019-02-24T14:53:43.320Z,47.90
2019-02-24T14:56:12.735Z,47.40
2019-02-24T14:58:42.025Z,47.30
2019-02-24T15:01:11.412Z,46.60
2019-02-24T15:03:40.781Z,46.70
2019-02-24T15:06:10.051Z,47.50
2019-02-24T15:08:39.321Z,46.90
2019-02-24T15:11:08.643Z,46.70
2019-02-24T15:13:37.898Z,47.20
2019-02-24T15:16:07.224Z,46.80
2019-02-24T15:18:36.679Z,47.20
2019-02-24T15:21:05.998Z,47.10
2019-02-24T15:23:35.280Z,46.50
2019-02-24T15:26:04.522Z,46.80
2019-02-24T15:28:33.859Z,46.90
2019-02-24T15:31:03.133Z,47.40
2019-02-24T15:33:32.426Z,47.70
2019-02-24T15:36:01.822Z,47.20
2019-02-24T15:38:31.104Z,47.40
2019-02-24T15:41:00.339Z,47.20
2019-02-24T15:43:29.681Z,47.40
2019-02-24T15:45:59.033Z,47.70
2019-02-24T15:48:28.288Z,47.90
2019-02-24T15:50:57.546Z,47.50
2019-02-24T15:53:26.885Z,47.40
2019-02-24T15:55:56.171Z,48.00
2019-02-24T15:58:25.646Z,48.00
2019-02-24T16:00:54.966Z,47.50
2019-02-24T16:03:24.282Z,47.70
2019-02-24T16:05:53.668Z,47.30
2019-02-24T16:08:22.978Z,48.30
2019-02-24T16:10:52.233Z,48.00
2019-02-24T16:13:21.530Z,48.00
2019-02-24T16:15:50.823Z,48.40
2019-02-24T16:18:20.075Z,48.80
2019-02-24T16:20:49.330Z,48.90
2019-02-24T16:23:18.669Z,48.00
2019-02-24T16:25:48.104Z,48.10
2019-02-24T16:28:37.295Z,48.90
2019-02-24T16:31:07.037Z,49.30
2019-02-24T16:33:41.076Z,48.90
2019-02-24T16:36:10.452Z,49.50
2019-02-24T16:38:55.480Z,50.30
2019-02-24T16:41:30.838Z,49.80
2019-02-24T16:44:02.139Z,49.20
2019-02-24T16:46:31.681Z,49.00
2019-02-24T16:49:00.997Z,49.30
2019-02-24T16:51:30.229Z,49.90
2019-02-24T16:53:59.494Z,49.80
2019-02-24T16:56:28.795Z,49.60
2019-02-24T16:58:58.106Z,49.50
2019-02-24T17:01:28.377Z,49.30
2019-02-24T17:03:57.709Z,48.80
2019-02-24T17:06:27.016Z,49.20
2019-02-24T17:09:01.411Z,49.40
2019-02-24T17:11:27.283Z,50.10
2019-02-24T17:13:57.589Z,50.80
2019-02-24T17:16:26.884Z,49.60
2019-02-24T17:18:56.245Z,49.50
2019-02-24T17:21:25.672Z,49.50
2019-02-24T17:23:54.982Z,48.60
2019-02-24T17:26:24.312Z,49.60
2019-02-24T17:28:53.613Z,50.20
2019-02-24T17:31:28.339Z,50.20
2019-02-24T17:33:54.003Z,50.40
2019-02-24T17:36:23.293Z,50.00
2019-02-24T17:38:52.628Z,49.90
2019-02-24T17:41:21.922Z,49.70
2019-02-24T17:43:51.250Z,49.80
2019-02-24T17:46:20.586Z,50.80
2019-02-24T17:48:49.851Z,52.30
2019-02-24T17:51:21.489Z,52.30
2019-02-24T17:53:50.140Z,53.00
2019-02-24T17:56:19.474Z,53.10
2019-02-24T17:58:48.805Z,53.00
2019-02-24T18:01:18.178Z,53.50
2019-02-24T18:03:47.517Z,53.80
2019-02-24T18:06:16.837Z,54.00
2019-02-24T18:08:46.113Z,54.20
2019-02-24T18:11:15.506Z,54.40
2019-02-24T18:13:44.812Z,54.60
2019-02-24T18:16:14.078Z,54.10
2019-02-24T18:18:43.788Z,54.30
2019-02-24T18:21:13.106Z,54.40
2019-02-24T18:23:42.498Z,55.50
2019-02-24T18:26:11.933Z,55.50
2019-02-24T18:28:41.376Z,55.60
2019-02-24T18:31:10.647Z,56.10
2019-02-24T18:33:48.064Z,56.50
2019-02-24T18:36:11.476Z,56.70
2019-02-24T18:38:41.692Z,56.60
2019-02-24T18:41:11.001Z,57.60
2019-02-24T18:43:40.467Z,57.90
2019-02-24T18:46:09.877Z,57.90
2019-02-24T18:48:39.179Z,59.30
2019-02-24T18:51:08.913Z,59.30
2019-02-24T18:53:38.181Z,59.10
2019-02-24T18:56:07.598Z,59.10
2019-02-24T18:58:37.011Z,58.90
2019-02-24T19:01:06.367Z,58.70
2019-02-24T19:03:35.735Z,58.40
2019-02-24T19:06:05.083Z,59.30
2019-02-24T19:08:34.855Z,61.00
2019-02-24T19:11:04.218Z,61.50
2019-02-24T19:13:33.478Z,61.60
2019-02-24T19:16:02.780Z,61.40
2019-02-24T19:18:32.432Z,61.40
2019-02-24T19:21:02.212Z,59.60
2019-02-24T19:23:31.957Z,57.90
2019-02-24T19:26:01.664Z,58.10
2019-02-24T19:28:47.381Z,57.50
2019-02-24T19:31:17.502Z,56.90
2019-02-24T19:33:47.145Z,56.90
2019-02-24T19:36:16.663Z,57.80
2019-02-24T19:38:45.922Z,58.70
2019-02-24T19:41:15.368Z,58.70
2019-02-24T19:43:47.055Z,58.70
2019-02-24T19:46:17.342Z,58.90
2019-02-24T19:48:46.813Z,59.10
2019-02-24T19:51:35.210Z,58.70
2019-02-24T19:54:04.637Z,58.40
2019-02-24T19:56:34.142Z,57.90
2019-02-24T19:59:03.567Z,57.50
2019-02-24T20:01:33.088Z,57.50
2019-02-24T20:04:02.488Z,57.80
2019-02-24T20:06:31.851Z,55.90
2019-02-24T20:09:01.217Z,56.10
2019-02-24T20:11:30.862Z,54.90
2019-02-24T20:14:01.761Z,54.70
2019-02-24T20:16:32.512Z,54.40
2019-02-24T20:19:02.008Z,53.80
2019-02-24T20:21:31.368Z,52.40
2019-02-24T20:24:00.807Z,51.70
2019-02-24T20:26:30.360Z,51.70
2019-02-24T20:29:00.467Z,50.00
2019-02-24T20:31:30.108Z,48.80
2019-02-24T20:33:59.404Z,48.80
2019-02-24T20:36:28.791Z,47.70
2019-02-24T20:38:58.164Z,48.10
2019-02-24T20:41:27.485Z,47.80
2019-02-24T20:43:56.784Z,46.50
2019-02-24T20:46:26.020Z,46.90
2019-02-24T20:48:55.331Z,47.10
2019-02-24T20:51:24.636Z,45.70
2019-02-24T20:53:53.904Z,45.70
2019-02-24T20:56:23.151Z,47.00
2019-02-24T20:58:52.447Z,47.10
2019-02-24T21:01:21.710Z,47.20
2019-02-24T21:03:51.049Z,47.70
2019-02-24T21:06:20.538Z,47.60
2019-02-24T21:08:49.882Z,46.40
2019-02-24T21:11:19.265Z,47.60
2019-02-24T21:13:48.645Z,48.80
2019-02-24T21:16:18.014Z,49.10
2019-02-24T21:18:47.379Z,51.00
2019-02-24T21:21:16.828Z,53.20
2019-02-24T21:23:46.180Z,53.70
2019-02-24T21:26:15.486Z,52.40
2019-02-24T21:28:44.863Z,53.50
2019-02-24T21:31:14.285Z,50.60
2019-02-24T21:33:43.735Z,49.60
2019-02-24T21:36:13.095Z,50.40
2019-02-24T21:38:42.562Z,52.50
2019-02-24T21:41:11.975Z,53.50
2019-02-24T21:43:41.335Z,53.40
2019-02-24T21:46:10.589Z,53.60
2019-02-24T21:48:39.919Z,53.90
2019-02-24T21:51:09.149Z,55.30
2019-02-24T21:53:38.372Z,54.50
2019-02-24T21:56:07.621Z,51.00
2019-02-24T21:58:36.878Z,51.00
2019-02-24T22:01:06.752Z,53.50
2019-02-24T22:03:36.549Z,53.70
2019-02-24T22:06:05.716Z,52.60
2019-02-24T22:08:35.054Z,49.50
2019-02-24T22:11:04.357Z,49.70
2019-02-24T22:13:33.608Z,50.80
2019-02-24T22:16:02.942Z,51.00
2019-02-24T22:18:32.229Z,51.70
2019-02-24T22:21:01.511Z,51.90
2019-02-24T22:23:30.750Z,51.90
2019-02-24T22:25:59.994Z,52.40
2019-02-24T22:28:29.224Z,51.30
2019-02-24T22:30:58.503Z,52.40
2019-02-24T22:33:27.768Z,53.70
2019-02-24T22:35:57.080Z,54.30
2019-02-24T22:38:26.334Z,54.90
2019-02-24T22:40:55.592Z,55.50
2019-02-24T22:43:24.746Z,54.70
2019-02-24T22:45:53.974Z,55.20
2019-02-24T22:48:23.267Z,54.00
2019-02-24T22:50:52.432Z,54.90
2019-02-24T22:53:21.713Z,54.10
2019-02-24T22:55:50.970Z,54.40
2019-02-24T22:58:20.247Z,54.40
2019-02-24T23:01:25.525Z,54.90
2019-02-24T23:04:04.744Z,53.70
2019-02-24T23:06:34.014Z,54.00
2019-02-24T23:09:03.950Z,54.80
2019-02-24T23:11:33.215Z,55.40
2019-02-24T23:14:02.433Z,56.40
2019-02-24T23:16:31.623Z,56.90
2019-02-24T23:19:00.918Z,57.90
2019-02-24T23:21:30.167Z,59.20
2019-02-24T23:23:59.397Z,60.00
2019-02-24T23:26:28.656Z,59.20
2019-02-24T23:28:57.824Z,57.40
2019-02-24T23:31:27.197Z,58.50
2019-02-24T23:33:56.420Z,57.00
2019-02-24T23:36:25.633Z,54.10
2019-02-24T23:38:54.777Z,56.80
2019-02-24T23:41:23.988Z,57.90
2019-02-24T23:43:53.192Z,58.60
2019-02-24T23:46:22.424Z,58.10
2019-02-24T23:48:51.685Z,57.70
2019-02-24T23:51:20.893Z,57.30
2019-02-24T23:53:50.083Z,56.80
2019-02-24T23:56:19.322Z,56.00
2019-02-24T23:58:48.576Z,53.20
